UTTT

Tashkent International Airport

Tashkent, Uzbekistan
TAF UTTT 151100Z 1512/1612 07012KT 7000 NSC TX36/1610Z TEMPO 1512/1518 33015KT
Issued Valid From Valid To
Aug-15 @ 11:00 UTC
(2 hours ago)
Aug-15 @ 12:00 UTC
(42 minutes ago)
Aug-16 @ 12:00 UTC
(in 23 hours)
Aug-15 @ 12:00 to Aug-16 @ 12:00
TAF UTTT 151100Z 1512/1612 07012KT 7000 NSC TX36/1610Z
Wind Visibility Clouds
70° at 12 knots 7,001 meters
  • No significant clouds
Temporary Aug-15 @ 12:00 to Aug-15 @ 18:00
TEMPO 1512/1518 33015KT
Wind
330° at 15 knots
TAF UTTT 151100Z 1512/1612 07012KT 7000 NSC TX36/1610Z TEMPO 1512/1518 33015KT
Issued Aug-15 @ 11:00 UTC
(2 hours ago)
Valid From Aug-15 @ 12:00 UTC
(42 minutes ago)
Valid To Aug-16 @ 12:00 UTC
(in 23 hours)
Aug-15 @ 12:00 - Aug-16 @ 12:00
Wind Visibility
70° at 12 knots 7,001 meters
Clouds
  • No significant clouds
Temporary Aug-15 @ 12:00 - Aug-15 @ 18:00
Wind
330° at 15 knots